Time,TemperatureF,DewpointF,PressureIn,WindDirection,WindDirectionDegrees,WindSpeedMPH,WindSpeedGustMPH,Humidity,HourlyPrecipIn,Conditions,Clouds,dailyrainin,SoftwareType,DateUTC
2013-05-06 00:11:00,46.6,33.0,30.00,SSE,163,0.0,0.0,60,0.00,,,0.00,weatherlink.com 1.10,2013-05-06 06:11:00,
2013-05-06 00:26:00,46.4,33.0,30.00,South,169,0.0,0.0,60,0.00,,,0.00,weatherlink.com 1.10,2013-05-06 06:26:00,
2013-05-06 00:41:00,45.7,34.0,30.00,South,169,0.0,0.0,63,0.00,,,0.00,weatherlink.com 1.10,2013-05-06 06:41:00,
2013-05-06 00:56:00,44.6,33.0,30.00,South,169,0.0,0.0,65,0.00,,,0.00,weatherlink.com 1.10,2013-05-06 06:56:00,
2013-05-06 01:11:00,43.9,33.0,29.98,South,169,0.0,0.0,65,0.00,,,0.00,weatherlink.com 1.10,2013-05-06 07:11:00,
2013-05-06 01:26:00,44.2,28.0,29.98,SW,220,0.0,2.0,53,0.00,,,0.00,weatherlink.com 1.10,2013-05-06 07:26:00,
2013-05-06 01:42:00,44.7,25.0,29.97,South,173,0.0,1.0,47,0.00,,,0.00,weatherlink.com 1.10,2013-05-06 07:42:00,
2013-05-06 01:57:00,45.0,25.0,29.97,SSE,160,0.0,3.0,45,0.00,,,0.00,weatherlink.com 1.10,2013-05-06 07:57:00,
2013-05-06 02:12:00,44.9,25.0,29.96,SSE,151,0.0,3.0,45,0.00,,,0.00,weatherlink.com 1.10,2013-05-06 08:12:00,
2013-05-06 02:27:00,44.5,24.0,29.96,South,190,0.0,1.0,45,0.00,,,0.00,weatherlink.com 1.10,2013-05-06 08:27:00,
2013-05-06 02:42:00,44.0,24.0,29.95,East,83,0.0,1.0,46,0.00,,,0.00,weatherlink.com 1.10,2013-05-06 08:42:00,
2013-05-06 02:57:00,43.8,24.0,29.94,ESE,104,0.0,1.0,46,0.00,,,0.00,weatherlink.com 1.10,2013-05-06 08:57:00,
2013-05-06 03:12:00,43.3,24.0,29.94,SE,125,0.0,1.0,46,0.00,,,0.00,weatherlink.com 1.10,2013-05-06 09:12:00,
2013-05-06 03:27:00,43.1,23.0,29.94,SE,130,0.0,3.0,46,0.00,,,0.00,weatherlink.com 1.10,2013-05-06 09:27:00,
2013-05-06 03:42:00,43.3,24.0,29.94,SSW,210,1.0,4.0,46,0.00,,,0.00,weatherlink.com 1.10,2013-05-06 09:42:00,
2013-05-06 03:57:00,43.2,24.0,29.94,South,187,0.0,2.0,47,0.00,,,0.00,weatherlink.com 1.10,2013-05-06 09:57:00,
2013-05-06 04:12:00,43.3,23.0,29.93,SSW,198,0.0,4.0,45,0.00,,,0.00,weatherlink.com 1.10,2013-05-06 10:12:00,
2013-05-06 04:27:00,43.6,23.0,29.93,SSE,149,0.0,3.0,44,0.00,,,0.00,weatherlink.com 1.10,2013-05-06 10:27:00,
2013-05-06 04:42:00,43.7,23.0,29.93,SW,219,0.0,2.0,44,0.00,,,0.00,weatherlink.com 1.10,2013-05-06 10:42:00,
2013-05-06 04:57:00,43.9,23.0,29.93,SW,222,0.0,2.0,44,0.00,,,0.00,weatherlink.com 1.10,2013-05-06 10:57:00,
2013-05-06 05:12:00,43.6,23.0,29.93,SSE,160,0.0,2.0,45,0.00,,,0.00,weatherlink.com 1.10,2013-05-06 11:12:00,
2013-05-06 05:27:00,43.1,23.0,29.93,SSW,194,0.0,0.0,46,0.00,,,0.00,weatherlink.com 1.10,2013-05-06 11:27:00,
2013-05-06 05:42:00,42.0,24.0,29.93,SSW,194,0.0,0.0,50,0.00,,,0.00,weatherlink.com 1.10,2013-05-06 11:42:00,
2013-05-06 05:57:00,40.9,24.0,29.93,SSW,195,0.0,0.0,52,0.00,,,0.00,weatherlink.com 1.10,2013-05-06 11:57:00,
2013-05-06 06:12:00,39.9,25.0,29.94,SSW,194,0.0,0.0,55,0.00,,,0.00,weatherlink.com 1.10,2013-05-06 12:12:00,
2013-05-06 06:27:00,39.7,25.0,29.94,SSW,194,0.0,0.0,56,0.00,,,0.00,weatherlink.com 1.10,2013-05-06 12:27:00,
2013-05-06 06:42:00,40.1,25.0,29.94,SSW,194,0.0,0.0,56,0.00,,,0.00,weatherlink.com 1.10,2013-05-06 12:42:00,
2013-05-06 06:57:00,41.5,28.0,29.95,NNW,340,0.0,2.0,58,0.00,,,0.00,weatherlink.com 1.10,2013-05-06 12:57:00,
2013-05-06 07:12:00,41.9,27.0,29.96,NNW,330,0.0,1.0,57,0.00,,,0.00,weatherlink.com 1.10,2013-05-06 13:12:00,
2013-05-06 07:27:00,42.6,27.0,29.96,North,6,0.0,3.0,54,0.00,,,0.00,weatherlink.com 1.10,2013-05-06 13:27:00,
2013-05-06 07:42:00,42.9,28.0,29.96,NW,312,2.0,3.0,57,0.00,,,0.00,weatherlink.com 1.10,2013-05-06 13:42:00,
2013-05-06 07:57:00,43.5,30.0,29.96,NNW,340,2.0,4.0,59,0.00,,,0.00,weatherlink.com 1.10,2013-05-06 13:57:00,
2013-05-06 08:12:00,44.9,32.0,29.96,NNW,347,1.0,3.0,60,0.00,,,0.00,weatherlink.com 1.10,2013-05-06 14:12:00,
2013-05-06 08:27:00,46.7,31.0,29.96,NW,323,3.0,4.0,55,0.00,,,0.00,weatherlink.com 1.10,2013-05-06 14:27:00,
2013-05-06 08:42:00,48.5,32.0,29.96,NNE,27,2.0,4.0,53,0.00,,,0.00,weatherlink.com 1.10,2013-05-06 14:42:00,
2013-05-06 08:57:00,48.8,32.0,29.95,WNW,301,2.0,4.0,53,0.00,,,0.00,weatherlink.com 1.10,2013-05-06 14:57:00,
2013-05-06 09:12:00,49.7,32.0,29.95,North,353,2.0,4.0,51,0.00,,,0.00,weatherlink.com 1.10,2013-05-06 15:12:00,
2013-05-06 09:27:00,50.6,32.0,29.95,North,352,0.0,5.0,50,0.00,,,0.00,weatherlink.com 1.10,2013-05-06 15:27:00,
2013-05-06 09:42:00,51.2,32.0,29.95,NNW,329,2.0,5.0,49,0.00,,,0.00,weatherlink.com 1.10,2013-05-06 15:42:00,
2013-05-06 09:57:00,52.3,32.0,29.95,NNE,18,1.0,7.0,46,0.00,,,0.00,weatherlink.com 1.10,2013-05-06 15:57:00,
2013-05-06 10:13:00,52.9,32.0,29.94,West,264,2.0,5.0,45,0.00,,,0.00,weatherlink.com 1.10,2013-05-06 16:13:00,
2013-05-06 10:28:00,54.2,32.0,29.94,NNW,337,2.0,6.0,43,0.00,,,0.00,weatherlink.com 1.10,2013-05-06 16:28:00,
2013-05-06 10:43:00,55.2,32.0,29.93,East,86,2.0,6.0,42,0.00,,,0.00,weatherlink.com 1.10,2013-05-06 16:43:00,
2013-05-06 10:58:00,56.5,31.0,29.93,NE,51,2.0,5.0,38,0.00,,,0.00,weatherlink.com 1.10,2013-05-06 16:58:00,
2013-05-06 11:13:00,57.6,31.0,29.93,NW,323,1.0,4.0,36,0.00,,,0.00,weatherlink.com 1.10,2013-05-06 17:13:00,
2013-05-06 11:28:00,58.5,30.0,29.93,North,350,1.0,5.0,34,0.00,,,0.00,weatherlink.com 1.10,2013-05-06 17:28:00,
2013-05-06 11:43:00,59.0,31.0,29.92,North,4,4.0,5.0,35,0.00,,,0.00,weatherlink.com 1.10,2013-05-06 17:43:00,
2013-05-06 11:58:00,59.2,31.0,29.91,North,11,2.0,6.0,34,0.00,,,0.00,weatherlink.com 1.10,2013-05-06 17:58:00,
2013-05-06 12:13:00,60.4,32.0,29.91,NE,47,2.0,4.0,34,0.00,,,0.00,weatherlink.com 1.10,2013-05-06 18:13:00,
2013-05-06 12:28:00,61.3,32.0,29.89,NW,316,3.0,5.0,33,0.00,,,0.00,weatherlink.com 1.10,2013-05-06 18:28:00,
2013-05-06 12:43:00,61.8,32.0,29.88,NNE,19,0.0,7.0,33,0.00,,,0.00,weatherlink.com 1.10,2013-05-06 18:43:00,
2013-05-06 12:58:00,63.5,34.0,29.88,ENE,77,0.0,5.0,34,0.00,,,0.00,weatherlink.com 1.10,2013-05-06 18:58:00,
2013-05-06 13:13:00,64.5,33.0,29.87,North,6,1.0,3.0,31,0.00,,,0.00,weatherlink.com 1.10,2013-05-06 19:13:00,
2013-05-06 13:28:00,65.0,33.0,29.87,East,89,1.0,3.0,30,0.00,,,0.00,weatherlink.com 1.10,2013-05-06 19:28:00,
2013-05-06 13:43:00,65.1,33.0,29.86,NW,311,1.0,4.0,30,0.00,,,0.00,weatherlink.com 1.10,2013-05-06 19:43:00,
2013-05-06 13:58:00,65.1,34.0,29.85,North,11,1.0,6.0,32,0.00,,,0.00,weatherlink.com 1.10,2013-05-06 19:58:00,
2013-05-06 14:13:00,65.3,35.0,29.84,SE,128,0.0,4.0,32,0.00,,,0.00,weatherlink.com 1.10,2013-05-06 20:13:00,
2013-05-06 14:28:00,66.6,35.0,29.83,NW,313,1.0,5.0,31,0.00,,,0.00,weatherlink.com 1.10,2013-05-06 20:28:00,
2013-05-06 14:43:00,66.7,35.0,29.83,North,4,5.0,5.0,31,0.00,,,0.00,weatherlink.com 1.10,2013-05-06 20:43:00,
2013-05-06 14:58:00,66.9,34.0,29.82,NW,326,1.0,5.0,30,0.00,,,0.00,weatherlink.com 1.10,2013-05-06 20:58:00,
2013-05-06 15:13:00,66.6,34.0,29.81,NNW,328,1.0,4.0,30,0.00,,,0.00,weatherlink.com 1.10,2013-05-06 21:13:00,
2013-05-06 15:28:00,65.8,33.0,29.80,WNW,300,1.0,4.0,30,0.00,,,0.00,weatherlink.com 1.10,2013-05-06 21:28:00,
2013-05-06 15:43:00,65.4,34.0,29.79,NNE,22,1.0,4.0,31,0.00,,,0.00,weatherlink.com 1.10,2013-05-06 21:43:00,
2013-05-06 15:59:00,65.0,34.0,29.79,NW,304,1.0,5.0,32,0.00,,,0.00,weatherlink.com 1.10,2013-05-06 21:59:00,
2013-05-06 16:14:00,64.8,34.0,29.78,North,359,2.0,4.0,32,0.00,,,0.00,weatherlink.com 1.10,2013-05-06 22:14:00,
2013-05-06 16:29:00,64.7,33.0,29.78,North,359,1.0,4.0,31,0.00,,,0.00,weatherlink.com 1.10,2013-05-06 22:29:00,
2013-05-06 16:44:00,64.6,33.0,29.78,NE,41,3.0,9.0,31,0.00,,,0.00,weatherlink.com 1.10,2013-05-06 22:44:00,
2013-05-06 16:59:00,64.7,33.0,29.78,North,354,2.0,4.0,31,0.00,,,0.00,weatherlink.com 1.10,2013-05-06 22:59:00,
2013-05-06 17:14:00,64.7,33.0,29.77,North,7,0.0,2.0,31,0.00,,,0.00,weatherlink.com 1.10,2013-05-06 23:14:00,
2013-05-06 17:29:00,64.9,33.0,29.77,West,269,0.0,3.0,31,0.00,,,0.00,weatherlink.com 1.10,2013-05-06 23:29:00,
2013-05-06 17:44:00,64.7,33.0,29.77,North,350,1.0,3.0,31,0.00,,,0.00,weatherlink.com 1.10,2013-05-06 23:44:00,
2013-05-06 17:59:00,64.5,33.0,29.76,NNW,329,1.0,4.0,31,0.00,,,0.00,weatherlink.com 1.10,2013-05-06 23:59:00,
2013-05-06 18:14:00,64.0,33.0,29.76,NNE,13,2.0,4.0,32,0.00,,,0.00,weatherlink.com 1.10,2013-05-07 00:14:00,
2013-05-06 18:29:00,64.0,33.0,29.75,NNW,329,1.0,3.0,32,0.00,,,0.00,weatherlink.com 1.10,2013-05-07 00:29:00,
2013-05-06 18:44:00,63.7,34.0,29.76,NNW,339,0.0,2.0,33,0.00,,,0.00,weatherlink.com 1.10,2013-05-07 00:44:00,
2013-05-06 18:59:00,63.2,33.0,29.76,NNW,329,0.0,3.0,33,0.00,,,0.00,weatherlink.com 1.10,2013-05-07 00:59:00,
2013-05-06 19:14:00,62.7,33.0,29.75,NNW,342,0.0,2.0,33,0.00,,,0.00,weatherlink.com 1.10,2013-05-07 01:14:00,
2013-05-06 19:29:00,62.3,33.0,29.76,NW,316,0.0,1.0,33,0.00,,,0.00,weatherlink.com 1.10,2013-05-07 01:29:00,
2013-05-06 19:44:00,61.7,32.0,29.76,NW,316,0.0,1.0,33,0.00,,,0.00,weatherlink.com 1.10,2013-05-07 01:44:00,
2013-05-06 19:59:00,61.1,36.0,29.76,SSE,163,1.0,2.0,39,0.00,,,0.00,weatherlink.com 1.10,2013-05-07 01:59:00,
2013-05-06 20:14:00,60.1,37.0,29.76,SW,219,0.0,3.0,43,0.00,,,0.00,weatherlink.com 1.10,2013-05-07 02:14:00,
2013-05-06 20:29:00,59.5,37.0,29.76,SW,218,0.0,2.0,44,0.00,,,0.00,weatherlink.com 1.10,2013-05-07 02:29:00,
2013-05-06 20:44:00,59.0,37.0,29.76,SSW,205,0.0,2.0,44,0.00,,,0.00,weatherlink.com 1.10,2013-05-07 02:44:00,
2013-05-06 20:59:00,58.4,36.0,29.76,SW,222,0.0,2.0,44,0.00,,,0.00,weatherlink.com 1.10,2013-05-07 02:59:00,
2013-05-06 21:14:00,57.9,36.0,29.76,SSE,159,0.0,2.0,45,0.00,,,0.00,weatherlink.com 1.10,2013-05-07 03:14:00,
2013-05-06 21:29:00,57.1,37.0,29.77,South,188,0.0,3.0,47,0.00,,,0.00,weatherlink.com 1.10,2013-05-07 03:29:00,
2013-05-06 21:44:00,56.1,37.0,29.77,SSW,204,2.0,5.0,50,0.00,,,0.00,weatherlink.com 1.10,2013-05-07 03:44:00,
2013-05-06 21:59:00,55.1,38.0,29.78,South,186,0.0,5.0,52,0.00,,,0.00,weatherlink.com 1.10,2013-05-07 03:59:00,
2013-05-06 22:14:00,54.3,38.0,29.78,SSE,156,1.0,5.0,54,0.00,,,0.00,weatherlink.com 1.10,2013-05-07 04:14:00,
2013-05-06 22:29:00,53.8,38.0,29.78,SSW,193,1.0,3.0,55,0.00,,,0.00,weatherlink.com 1.10,2013-05-07 04:29:00,
2013-05-06 22:44:00,53.2,38.0,29.77,South,183,1.0,3.0,56,0.00,,,0.00,weatherlink.com 1.10,2013-05-07 04:44:00,
2013-05-06 22:59:00,52.8,38.0,29.77,South,178,1.0,3.0,57,0.00,,,0.00,weatherlink.com 1.10,2013-05-07 04:59:00,
2013-05-06 23:14:00,52.6,38.0,29.77,SSW,207,0.0,4.0,57,0.00,,,0.00,weatherlink.com 1.10,2013-05-07 05:14:00,
2013-05-06 23:29:00,52.3,38.0,29.77,SSW,210,0.0,4.0,58,0.00,,,0.00,weatherlink.com 1.10,2013-05-07 05:29:00,
2013-05-06 23:44:00,51.9,38.0,29.77,SSW,203,1.0,3.0,59,0.00,,,0.00,weatherlink.com 1.10,2013-05-07 05:44:00,
2013-05-06 23:59:00,51.6,38.0,29.77,SW,221,2.0,2.0,60,0.00,,,0.00,weatherlink.com 1.10,2013-05-07 05:59:00,